createdAt,value
2022-08-28T00:00:51.600Z,17.03
2022-08-28T00:03:18.748Z,16.99
2022-08-28T00:05:46.717Z,16.96
2022-08-28T00:08:16.964Z,16.96
2022-08-28T00:10:47.068Z,16.96
2022-08-28T00:13:18.918Z,16.91
2022-08-28T00:15:49.348Z,16.89
2022-08-28T00:18:17.891Z,16.86
2022-08-28T00:20:46.622Z,16.81
2022-08-28T00:23:14.019Z,16.85
2022-08-28T00:25:41.274Z,16.81
2022-08-28T00:28:10.792Z,16.82
2022-08-28T00:30:53.790Z,16.78
2022-08-28T00:33:33.473Z,16.77
2022-08-28T00:36:02.414Z,16.74
2022-08-28T00:38:29.999Z,16.71
2022-08-28T00:41:04.031Z,16.73
2022-08-28T00:43:40.133Z,16.70
2022-08-28T00:46:11.656Z,16.66
2022-08-28T00:48:40.440Z,16.63
2022-08-28T00:51:26.864Z,16.63
2022-08-28T00:53:58.944Z,16.63
2022-08-28T00:56:29.119Z,16.62
2022-08-28T00:59:02.019Z,16.57
2022-08-28T01:01:30.217Z,16.54
2022-08-28T01:03:58.022Z,16.54
2022-08-28T01:06:25.234Z,16.53
2022-08-28T01:08:53.900Z,16.51
2022-08-28T01:11:21.384Z,16.49
2022-08-28T01:13:49.953Z,16.42
2022-08-28T01:16:19.530Z,16.41
2022-08-28T01:18:48.314Z,16.35
2022-08-28T01:21:39.619Z,16.30
2022-08-28T01:24:14.383Z,16.20
2022-08-28T01:26:42.630Z,16.12
2022-08-28T01:29:11.567Z,16.13
2022-08-28T01:31:41.631Z,16.12
2022-08-28T01:34:12.609Z,16.08
2022-08-28T01:36:40.373Z,16.07
2022-08-28T01:39:18.789Z,16.07
2022-08-28T01:41:48.480Z,16.11
2022-08-28T01:44:17.985Z,16.12
2022-08-28T01:46:46.654Z,16.15
2022-08-28T01:49:15.838Z,16.15
2022-08-28T01:51:43.110Z,16.15
2022-08-28T01:54:11.865Z,16.22
2022-08-28T01:56:41.923Z,16.20
2022-08-28T01:59:10.552Z,16.21
2022-08-28T02:01:38.218Z,16.20
2022-08-28T02:04:06.356Z,16.21
2022-08-28T02:06:34.097Z,16.22
2022-08-28T02:09:04.051Z,16.20
2022-08-28T02:11:32.831Z,16.19
2022-08-28T02:14:01.248Z,16.19
2022-08-28T02:16:28.854Z,16.19
2022-08-28T02:18:56.740Z,16.20
2022-08-28T02:21:25.398Z,16.20
2022-08-28T02:23:53.111Z,16.20
2022-08-28T02:26:21.132Z,16.21
2022-08-28T02:28:48.764Z,16.16
2022-08-28T02:31:16.139Z,16.22
2022-08-28T02:33:44.984Z,16.19
2022-08-28T02:36:14.188Z,16.25
2022-08-28T02:38:45.050Z,16.23
2022-08-28T02:41:12.704Z,16.20
2022-08-28T02:43:40.602Z,16.21
2022-08-28T02:46:08.362Z,16.20
2022-08-28T02:48:37.179Z,16.17
2022-08-28T02:51:07.822Z,16.20
2022-08-28T02:53:36.429Z,16.19
2022-08-28T02:56:05.091Z,16.16
2022-08-28T02:58:35.695Z,16.13
2022-08-28T03:01:15.669Z,16.15
2022-08-28T03:03:43.035Z,16.15
2022-08-28T03:06:12.553Z,16.11
2022-08-28T03:08:41.672Z,16.10
2022-08-28T03:11:09.590Z,16.10
2022-08-28T03:13:36.639Z,16.10
2022-08-28T03:16:05.053Z,16.06
2022-08-28T03:18:33.266Z,16.03
2022-08-28T03:21:00.570Z,16.04
2022-08-28T03:23:28.023Z,15.98
2022-08-28T03:26:13.105Z,16.00
2022-08-28T03:28:48.049Z,15.94
2022-08-28T03:31:19.767Z,15.98
2022-08-28T03:33:48.669Z,15.83
2022-08-28T03:36:21.398Z,15.77
2022-08-28T03:38:50.205Z,15.71
2022-08-28T03:41:21.549Z,15.65
2022-08-28T03:43:49.433Z,15.65
2022-08-28T03:46:17.954Z,15.65
2022-08-28T03:48:45.706Z,15.65
2022-08-28T03:51:24.622Z,15.60
2022-08-28T03:53:58.211Z,15.55
2022-08-28T03:56:27.206Z,15.51
2022-08-28T03:58:57.490Z,15.43
2022-08-28T04:01:25.725Z,15.46
2022-08-28T04:03:53.039Z,15.51
2022-08-28T04:06:20.223Z,15.54
2022-08-28T04:08:48.424Z,15.58
2022-08-28T04:11:15.605Z,15.58
2022-08-28T04:13:42.824Z,15.63
2022-08-28T04:16:21.344Z,15.61
2022-08-28T04:18:49.649Z,15.64
2022-08-28T04:21:21.113Z,15.63
2022-08-28T04:23:48.435Z,15.63
2022-08-28T04:26:18.746Z,15.67
2022-08-28T04:28:46.771Z,15.62
2022-08-28T04:31:15.010Z,15.61
2022-08-28T04:33:42.590Z,15.62
2022-08-28T04:36:13.145Z,15.61
2022-08-28T04:38:44.031Z,15.60
2022-08-28T04:41:14.067Z,15.60
2022-08-28T04:43:42.082Z,15.55
2022-08-28T04:46:12.687Z,15.53
2022-08-28T04:48:41.458Z,15.50
2022-08-28T04:51:12.358Z,15.50
2022-08-28T04:53:39.730Z,15.48
2022-08-28T04:56:10.044Z,15.43
2022-08-28T04:58:39.131Z,15.46
2022-08-28T05:01:12.839Z,15.40
2022-08-28T05:03:40.259Z,15.37
2022-08-28T05:06:08.611Z,15.32
2022-08-28T05:08:35.975Z,15.29
2022-08-28T05:11:32.672Z,15.26
2022-08-28T05:14:02.016Z,15.16
2022-08-28T05:16:29.187Z,15.11
2022-08-28T05:19:00.500Z,15.06
2022-08-28T05:21:28.266Z,15.00
2022-08-28T05:23:57.882Z,14.99
2022-08-28T05:26:26.881Z,14.90
2022-08-28T05:28:55.337Z,14.75
2022-08-28T05:31:23.947Z,14.69
2022-08-28T05:33:53.255Z,14.67
2022-08-28T05:36:23.196Z,14.63
2022-08-28T05:38:56.743Z,14.57
2022-08-28T05:41:30.179Z,14.54
2022-08-28T05:44:02.714Z,14.48
2022-08-28T05:46:29.997Z,14.47
2022-08-28T05:49:00.775Z,14.44
2022-08-28T05:51:28.829Z,14.40
2022-08-28T05:53:57.982Z,14.45
2022-08-28T05:56:30.098Z,14.45
2022-08-28T05:59:25.066Z,14.50
2022-08-28T06:02:00.879Z,14.56
2022-08-28T06:04:40.507Z,14.61
2022-08-28T06:07:44.007Z,14.82
2022-08-28T06:10:11.826Z,14.72
2022-08-28T06:12:38.991Z,14.70
2022-08-28T06:15:08.629Z,14.71
2022-08-28T06:17:40.645Z,14.61
2022-08-28T06:20:09.128Z,14.63
2022-08-28T06:22:36.328Z,14.65
2022-08-28T06:25:07.422Z,14.62
2022-08-28T06:27:39.246Z,14.68
2022-08-28T06:30:07.122Z,14.69
2022-08-28T06:32:37.026Z,14.75
2022-08-28T06:35:05.022Z,14.70
2022-08-28T06:37:34.140Z,14.67
2022-08-28T06:40:02.256Z,14.70
2022-08-28T06:42:33.939Z,14.75
2022-08-28T06:45:01.568Z,14.70
2022-08-28T06:47:28.811Z,14.74
2022-08-28T06:51:04.132Z,14.82
2022-08-28T06:53:34.036Z,14.85
2022-08-28T06:56:09.910Z,14.96
2022-08-28T06:58:42.538Z,15.03
2022-08-28T07:01:24.185Z,14.99
2022-08-28T07:03:54.980Z,15.04
2022-08-28T07:06:24.003Z,15.06
2022-08-28T07:08:51.951Z,14.96
2022-08-28T07:11:26.104Z,14.95
2022-08-28T07:13:55.543Z,14.86
2022-08-28T07:16:26.863Z,14.96
2022-08-28T07:18:54.449Z,14.99
2022-08-28T07:21:22.743Z,15.16
2022-08-28T07:23:50.414Z,15.15
2022-08-28T07:26:23.350Z,15.15
2022-08-28T07:28:51.953Z,15.14
2022-08-28T07:31:23.049Z,15.21
2022-08-28T07:33:54.261Z,15.20
2022-08-28T07:36:29.921Z,15.23
2022-08-28T07:39:00.298Z,15.27
2022-08-28T07:41:37.906Z,15.31
2022-08-28T07:44:26.524Z,15.29
2022-08-28T07:47:00.227Z,15.30
2022-08-28T07:49:28.379Z,15.21
2022-08-28T07:51:55.670Z,15.30
2022-08-28T07:54:23.693Z,15.24
2022-08-28T07:56:52.804Z,15.18
2022-08-28T07:59:20.324Z,15.16
2022-08-28T08:01:51.861Z,15.12
2022-08-28T08:04:20.833Z,15.16
2022-08-28T08:06:49.103Z,15.08
2022-08-28T08:09:21.252Z,15.14
2022-08-28T08:11:50.196Z,15.27
2022-08-28T08:14:21.085Z,15.39
2022-08-28T08:16:56.366Z,15.59
2022-08-28T08:19:26.000Z,15.82
2022-08-28T08:21:55.137Z,16.04
2022-08-28T08:24:28.813Z,16.18
2022-08-28T08:27:00.757Z,16.27
2022-08-28T08:29:31.612Z,16.40
2022-08-28T08:32:06.237Z,16.40
2022-08-28T08:34:38.728Z,16.69
2022-08-28T08:37:06.362Z,16.84
2022-08-28T08:51:35.366Z,17.29
2022-08-28T08:54:15.391Z,17.36
2022-08-28T08:56:44.967Z,17.21
2022-08-28T08:59:25.841Z,17.14
2022-08-28T09:02:22.506Z,17.14
2022-08-28T09:05:06.686Z,17.12
2022-08-28T09:07:34.834Z,17.34
2022-08-28T09:10:02.330Z,17.44
2022-08-28T09:13:41.218Z,17.64
2022-08-28T09:16:55.718Z,17.39
2022-08-28T09:19:25.280Z,17.42
2022-08-28T09:21:53.246Z,17.50
2022-08-28T09:24:28.974Z,17.58
2022-08-28T09:27:08.939Z,17.66
2022-08-28T09:31:19.552Z,17.70
2022-08-28T09:34:07.298Z,17.58
2022-08-28T09:37:25.144Z,17.89
2022-08-28T09:40:24.772Z,17.98
2022-08-28T09:43:27.096Z,17.74
2022-08-28T09:46:56.412Z,17.64
2022-08-28T09:49:45.629Z,17.26
2022-08-28T09:52:33.760Z,17.45
2022-08-28T09:55:03.227Z,17.46
2022-08-28T09:57:32.784Z,17.74
2022-08-28T10:00:06.663Z,17.79
2022-08-28T10:03:09.746Z,17.88
2022-08-28T10:05:51.941Z,17.77
2022-08-28T10:08:48.416Z,18.07
2022-08-28T10:11:34.754Z,18.25
2022-08-28T10:14:28.653Z,18.61
2022-08-28T10:17:14.172Z,18.69
2022-08-28T10:19:49.949Z,18.53
2022-08-28T10:22:59.455Z,18.27
2022-08-28T10:25:58.132Z,18.11
2022-08-28T10:28:39.974Z,17.88
2022-08-28T10:31:26.804Z,17.83
2022-08-28T10:34:14.777Z,17.87
2022-08-28T10:36:50.934Z,18.03
2022-08-28T10:39:47.890Z,18.64
2022-08-28T10:42:27.859Z,18.55
2022-08-28T10:45:15.035Z,18.23
2022-08-28T10:47:51.502Z,18.02
2022-08-28T10:50:24.086Z,18.34
2022-08-28T10:53:00.343Z,18.78
2022-08-28T10:55:36.592Z,19.20
2022-08-28T10:58:23.831Z,18.92
2022-08-28T11:01:01.669Z,18.79
2022-08-28T11:03:34.839Z,18.64
2022-08-28T11:06:11.603Z,18.84
2022-08-28T11:08:39.884Z,19.03
2022-08-28T11:11:14.065Z,19.21
2022-08-28T11:13:58.403Z,18.87
2022-08-28T11:16:42.196Z,18.90
2022-08-28T11:19:22.813Z,19.18
2022-08-28T11:22:04.760Z,19.47
2022-08-28T11:24:50.640Z,19.26
2022-08-28T11:27:35.618Z,18.96
2022-08-28T11:30:10.837Z,18.51
2022-08-28T11:32:49.707Z,18.74
2022-08-28T11:35:53.373Z,18.99
2022-08-28T11:38:43.467Z,19.17
2022-08-28T11:41:23.114Z,19.32
2022-08-28T11:44:04.487Z,19.22
2022-08-28T11:46:33.872Z,19.00
2022-08-28T11:49:05.318Z,18.92
2022-08-28T11:51:57.616Z,19.23
2022-08-28T11:54:37.763Z,19.55
2022-08-28T11:57:13.641Z,19.73
2022-08-28T11:59:55.565Z,19.63
2022-08-28T12:02:59.688Z,19.55
2022-08-28T12:05:33.184Z,19.57
2022-08-28T12:08:02.645Z,19.56
2022-08-28T12:10:30.866Z,19.61
2022-08-28T12:13:09.952Z,19.76
2022-08-28T12:15:42.152Z,19.80
2022-08-28T12:18:12.580Z,19.76
2022-08-28T12:21:00.783Z,19.91
2022-08-28T12:23:36.710Z,20.01
2022-08-28T12:26:18.991Z,19.97
2022-08-28T12:29:00.469Z,20.11
2022-08-28T12:32:08.122Z,20.28
2022-08-28T12:34:57.410Z,20.24
2022-08-28T12:37:52.733Z,20.33
2022-08-28T12:40:50.204Z,20.04
2022-08-28T12:43:26.144Z,19.94
2022-08-28T12:46:04.027Z,19.99
2022-08-28T12:48:33.346Z,20.00
2022-08-28T12:51:06.415Z,20.16
2022-08-28T12:53:45.274Z,20.33
2022-08-28T12:56:17.051Z,20.68
2022-08-28T12:58:45.408Z,20.96
2022-08-28T13:01:16.263Z,21.12
2022-08-28T13:03:49.865Z,20.64
2022-08-28T13:06:38.591Z,20.30
2022-08-28T13:09:14.652Z,20.12
2022-08-28T13:11:49.506Z,20.07
2022-08-28T13:14:37.918Z,20.37
2022-08-28T13:17:05.403Z,20.17
2022-08-28T13:19:34.274Z,19.95
2022-08-28T13:22:05.808Z,19.87
2022-08-28T13:24:40.159Z,20.12
2022-08-28T13:27:16.738Z,20.12
2022-08-28T13:30:21.135Z,20.02
2022-08-28T13:33:14.974Z,20.10
2022-08-28T13:35:42.707Z,20.00
2022-08-28T13:38:13.135Z,19.87
2022-08-28T13:40:59.364Z,20.16
2022-08-28T13:43:30.363Z,20.21
2022-08-28T13:45:57.958Z,20.40
2022-08-28T13:48:27.317Z,20.40
2022-08-28T13:51:03.168Z,20.19
2022-08-28T13:53:32.743Z,20.05
2022-08-28T13:56:00.520Z,19.92
2022-08-28T13:58:28.263Z,19.97
2022-08-28T14:00:55.659Z,19.94
2022-08-28T14:03:39.056Z,19.95
2022-08-28T14:06:12.796Z,19.80
2022-08-28T14:08:42.008Z,19.75
2022-08-28T14:11:12.699Z,19.80
2022-08-28T14:13:47.073Z,20.02
2022-08-28T14:16:24.971Z,20.02
2022-08-28T14:18:53.086Z,20.17
2022-08-28T14:21:22.116Z,20.67
2022-08-28T14:23:49.348Z,21.08
2022-08-28T14:26:16.552Z,21.44
2022-08-28T14:28:43.732Z,21.40
2022-08-28T14:31:14.387Z,21.37
2022-08-28T14:33:45.172Z,21.55
2022-08-28T14:36:22.500Z,21.64
2022-08-28T14:38:53.886Z,21.22
2022-08-28T14:41:23.137Z,20.98
2022-08-28T14:43:50.574Z,20.87
2022-08-28T14:46:25.100Z,21.03
2022-08-28T14:48:52.491Z,20.93
2022-08-28T14:51:19.621Z,20.61
2022-08-28T14:53:48.345Z,20.78
2022-08-28T14:56:15.742Z,21.20
2022-08-28T14:58:43.240Z,21.47
2022-08-28T15:01:10.487Z,21.69
2022-08-28T15:03:37.942Z,21.93
2022-08-28T15:06:09.206Z,22.02
2022-08-28T15:08:37.479Z,22.09
2022-08-28T15:11:07.338Z,21.98
2022-08-28T15:13:35.458Z,21.80
2022-08-28T15:16:06.466Z,21.74
2022-08-28T15:18:45.722Z,21.71
2022-08-28T15:21:18.336Z,21.82
2022-08-28T15:23:45.921Z,21.98
2022-08-28T15:26:15.484Z,21.69
2022-08-28T15:28:43.148Z,21.55
2022-08-28T15:31:10.524Z,21.55
2022-08-28T15:33:40.170Z,21.66
2022-08-28T15:36:10.835Z,21.70
2022-08-28T15:38:56.716Z,21.67
2022-08-28T15:41:25.593Z,21.64
2022-08-28T15:43:54.977Z,21.66
2022-08-28T15:46:23.389Z,21.66
2022-08-28T15:48:50.573Z,21.64
2022-08-28T15:51:25.951Z,21.59
2022-08-28T15:53:55.668Z,21.50
2022-08-28T15:56:23.507Z,21.49
2022-08-28T15:58:51.919Z,21.27
2022-08-28T16:01:20.637Z,20.93
2022-08-28T16:03:47.918Z,20.96
2022-08-28T16:06:23.323Z,20.90
2022-08-28T16:08:50.657Z,20.91
2022-08-28T16:11:19.751Z,20.89
2022-08-28T16:13:47.406Z,20.85
2022-08-28T16:16:14.903Z,20.87
2022-08-28T16:18:42.780Z,20.82
2022-08-28T16:21:10.754Z,20.89
2022-08-28T16:23:38.828Z,20.80
2022-08-28T16:26:07.434Z,20.76
2022-08-28T16:28:35.967Z,20.80
2022-08-28T16:31:07.521Z,20.77
2022-08-28T16:33:46.254Z,20.74
2022-08-28T16:36:14.169Z,20.71
2022-08-28T16:38:43.526Z,20.70
2022-08-28T16:41:23.944Z,20.58
2022-08-28T16:43:55.485Z,20.54
2022-08-28T16:46:24.896Z,20.52
2022-08-28T16:48:53.885Z,20.42
2022-08-28T16:51:21.553Z,20.26
2022-08-28T16:53:48.853Z,20.20
2022-08-28T16:56:17.789Z,20.11
2022-08-28T16:58:46.055Z,20.12
2022-08-28T17:01:13.878Z,20.08
2022-08-28T17:03:42.479Z,20.06
2022-08-28T17:06:13.979Z,20.07
2022-08-28T17:08:41.559Z,20.02
2022-08-28T17:11:08.841Z,20.09
2022-08-28T17:13:36.327Z,19.89
2022-08-28T17:16:04.330Z,19.90
2022-08-28T17:18:32.845Z,19.80
2022-08-28T17:21:19.076Z,19.84
2022-08-28T17:23:46.733Z,19.71
2022-08-28T17:26:15.412Z,19.58
2022-08-28T17:28:43.499Z,19.42
2022-08-28T17:31:12.427Z,19.37
2022-08-28T17:33:41.348Z,19.24
2022-08-28T17:36:17.067Z,19.32
2022-08-28T17:38:58.530Z,19.23
2022-08-28T17:41:25.764Z,19.03
2022-08-28T17:43:53.238Z,18.98
2022-08-28T17:46:20.429Z,18.88
2022-08-28T17:48:54.273Z,18.83
2022-08-28T17:51:33.858Z,18.78
2022-08-28T17:54:12.762Z,18.76
2022-08-28T17:56:40.669Z,18.70
2022-08-28T17:59:07.991Z,18.43
2022-08-28T18:01:36.254Z,18.40
2022-08-28T18:04:05.262Z,18.49
2022-08-28T18:06:32.862Z,18.44
2022-08-28T18:09:00.478Z,18.35
2022-08-28T18:11:28.326Z,18.45
2022-08-28T18:13:55.400Z,18.41
2022-08-28T18:16:25.432Z,18.39
2022-08-28T18:18:54.961Z,18.27
2022-08-28T18:21:22.150Z,18.18
2022-08-28T18:23:49.252Z,18.23
2022-08-28T18:26:17.622Z,18.30
2022-08-28T18:28:44.881Z,18.17
2022-08-28T18:31:12.242Z,18.07
2022-08-28T18:33:39.579Z,18.02
2022-08-28T18:36:09.002Z,18.04
2022-08-28T18:38:37.006Z,17.85
2022-08-28T18:41:05.879Z,17.74
2022-08-28T18:43:33.465Z,17.76
2022-08-28T18:46:02.062Z,17.90
2022-08-28T18:48:31.214Z,17.91
2022-08-28T18:50:58.720Z,17.88
2022-08-28T18:53:26.573Z,17.85
2022-08-28T18:55:55.132Z,17.82
2022-08-28T18:58:23.487Z,17.80
2022-08-28T19:00:51.445Z,17.83
2022-08-28T19:03:18.978Z,17.75
2022-08-28T19:05:46.379Z,17.79
2022-08-28T19:08:14.395Z,17.78
2022-08-28T19:10:42.121Z,17.73
2022-08-28T19:13:11.061Z,17.67
2022-08-28T19:15:38.542Z,17.51
2022-08-28T19:18:05.944Z,17.36
2022-08-28T19:20:34.305Z,17.46
2022-08-28T19:23:01.535Z,17.43
2022-08-28T19:25:30.709Z,17.32
2022-08-28T19:27:59.652Z,17.36
2022-08-28T19:30:31.210Z,17.36
2022-08-28T19:32:59.390Z,17.43
2022-08-28T19:35:26.807Z,17.47
2022-08-28T19:37:54.160Z,17.34
2022-08-28T19:40:22.267Z,17.34
2022-08-28T19:42:52.696Z,17.28
2022-08-28T19:45:20.407Z,17.18
2022-08-28T19:47:47.616Z,17.15
2022-08-28T19:50:15.800Z,17.20
2022-08-28T19:52:44.021Z,17.27
2022-08-28T19:55:17.612Z,17.18
2022-08-28T19:57:46.910Z,17.14
2022-08-28T20:00:19.035Z,17.15
2022-08-28T20:02:48.152Z,17.14
2022-08-28T20:05:15.698Z,17.18
2022-08-28T20:07:43.685Z,17.13
2022-08-28T20:10:12.568Z,17.07
2022-08-28T20:12:40.253Z,17.09
2022-08-28T20:15:17.267Z,17.07
2022-08-28T20:17:49.837Z,16.97
2022-08-28T20:20:20.301Z,16.96
2022-08-28T20:22:47.866Z,16.95
2022-08-28T20:25:15.710Z,16.94
2022-08-28T20:27:42.826Z,16.99
2022-08-28T20:30:11.543Z,17.01
2022-08-28T20:32:40.055Z,16.97
2022-08-28T20:35:12.095Z,16.98
2022-08-28T20:37:44.559Z,16.96
2022-08-28T20:40:19.268Z,16.96
2022-08-28T20:42:46.739Z,16.88
2022-08-28T20:45:15.946Z,16.79
2022-08-28T20:47:44.042Z,16.88
2022-08-28T20:50:11.788Z,16.75
2022-08-28T20:52:39.214Z,16.74
2022-08-28T20:55:08.016Z,16.63
2022-08-28T20:57:36.038Z,16.65
2022-08-28T21:00:08.268Z,16.62
2022-08-28T21:02:36.554Z,16.58
2022-08-28T21:05:05.035Z,16.51
2022-08-28T21:07:34.023Z,16.56
2022-08-28T21:10:05.891Z,16.62
2022-08-28T21:12:39.422Z,16.53
2022-08-28T21:15:09.134Z,16.40
2022-08-28T21:17:36.540Z,16.34
2022-08-28T21:20:12.836Z,16.21
2022-08-28T21:22:40.805Z,16.23
2022-08-28T21:25:10.497Z,16.26
2022-08-28T21:27:38.792Z,16.22
2022-08-28T21:30:08.334Z,16.21
2022-08-28T21:32:36.213Z,16.17
2022-08-28T21:35:07.165Z,16.17
2022-08-28T21:37:34.506Z,16.25
2022-08-28T21:40:03.143Z,16.20
2022-08-28T21:42:30.371Z,16.17
2022-08-28T21:44:57.910Z,16.19
2022-08-28T21:47:25.718Z,16.15
2022-08-28T21:49:54.204Z,16.18
2022-08-28T21:52:26.219Z,16.10
2022-08-28T21:55:02.268Z,16.01
2022-08-28T21:57:30.011Z,15.92
2022-08-28T21:59:58.523Z,16.02
2022-08-28T22:02:26.269Z,15.94
2022-08-28T22:04:54.114Z,15.89
2022-08-28T22:07:21.702Z,15.85
2022-08-28T22:09:49.384Z,15.80
2022-08-28T22:12:16.767Z,15.83
2022-08-28T22:14:44.033Z,15.72
2022-08-28T22:17:11.917Z,15.59
2022-08-28T22:19:39.770Z,15.61
2022-08-28T22:22:27.224Z,15.60
2022-08-28T22:24:54.504Z,15.59
2022-08-28T22:27:21.801Z,15.47
2022-08-28T22:29:49.023Z,15.46
2022-08-28T22:32:16.221Z,15.44
2022-08-28T22:34:45.337Z,15.37
2022-08-28T22:37:13.076Z,15.39
2022-08-28T22:39:41.294Z,15.41
2022-08-28T22:42:09.833Z,15.48
2022-08-28T22:44:38.416Z,15.40
2022-08-28T22:47:06.244Z,15.36
2022-08-28T22:49:33.946Z,15.32
2022-08-28T22:52:03.434Z,15.21
2022-08-28T22:54:32.536Z,15.25
2022-08-28T22:56:59.723Z,15.21
2022-08-28T22:59:28.024Z,15.12
2022-08-28T23:01:55.685Z,15.10
2022-08-28T23:04:22.932Z,15.02
2022-08-28T23:06:50.160Z,15.03
2022-08-28T23:09:17.386Z,14.93
2022-08-28T23:11:44.507Z,14.96
2022-08-28T23:14:12.386Z,14.93
2022-08-28T23:16:39.616Z,14.94
2022-08-28T23:19:09.154Z,14.88
2022-08-28T23:21:39.259Z,14.86
2022-08-28T23:24:08.262Z,14.86
2022-08-28T23:26:35.395Z,14.81
2022-08-28T23:29:02.955Z,14.78
2022-08-28T23:31:30.152Z,14.84
2022-08-28T23:33:57.392Z,14.83
2022-08-28T23:36:24.615Z,14.78
2022-08-28T23:38:51.996Z,14.76
2022-08-28T23:41:19.228Z,14.72
2022-08-28T23:43:47.497Z,14.61
2022-08-28T23:46:20.637Z,14.56
2022-08-28T23:48:49.627Z,14.52
2022-08-28T23:51:17.349Z,14.56
2022-08-28T23:53:46.120Z,14.55
2022-08-28T23:56:14.774Z,14.60
2022-08-28T23:58:43.225Z,14.46
